createdAt,value
2018-06-18T00:10:43.567Z,99382.16
2018-06-18T00:13:14.159Z,99386.53
2018-06-18T00:15:43.947Z,99380.20
2018-06-18T00:18:12.784Z,99389.53
2018-06-18T00:20:41.561Z,99386.58
2018-06-18T00:23:10.193Z,99388.66
2018-06-18T00:25:38.693Z,99396.20
2018-06-18T00:28:07.179Z,99380.70
2018-06-18T00:30:35.831Z,99404.17
2018-06-18T00:33:04.514Z,99399.55
2018-06-18T00:35:33.170Z,99404.55
2018-06-18T00:38:02.190Z,99394.30
2018-06-18T00:40:30.776Z,99398.04
2018-06-18T00:42:59.510Z,99392.82
2018-06-18T00:45:28.362Z,99393.98
2018-06-18T00:47:56.799Z,99393.89
2018-06-18T00:50:24.961Z,99380.59
2018-06-18T00:52:53.401Z,99397.91
2018-06-18T00:55:33.295Z,99394.45
2018-06-18T00:58:01.858Z,99394.50
2018-06-18T01:00:30.344Z,99390.66
2018-06-18T01:02:58.928Z,99394.78
2018-06-18T01:05:27.305Z,99396.83
2018-06-18T01:07:55.764Z,99394.04
2018-06-18T01:10:24.781Z,99348.58
2018-06-18T01:12:53.204Z,99392.98
2018-06-18T01:15:22.097Z,99392.48
2018-06-18T01:17:50.509Z,99400.45
2018-06-18T01:20:18.953Z,99401.34
2018-06-18T01:23:56.005Z,99404.82
2018-06-18T01:26:24.561Z,99405.35
2018-06-18T01:28:53.316Z,99416.77
2018-06-18T01:31:22.085Z,99415.28
2018-06-18T01:33:51.536Z,99415.81
2018-06-18T01:36:20.088Z,99422.75
2018-06-18T01:38:48.982Z,99424.77
2018-06-18T01:41:17.325Z,99432.36
2018-06-18T01:43:45.764Z,99417.95
2018-06-18T01:46:14.767Z,99417.18
2018-06-18T01:48:46.003Z,99422.53
2018-06-18T01:51:16.970Z,99419.47
2018-06-18T01:53:48.417Z,99412.34
2018-06-18T01:56:16.749Z,99403.45
2018-06-18T01:58:45.228Z,99402.31
2018-06-18T02:01:13.564Z,99415.64
2018-06-18T02:03:41.644Z,99395.12
2018-06-18T02:06:10.280Z,99405.16
2018-06-18T02:08:39.068Z,99409.38
2018-06-18T02:11:07.420Z,99387.31
2018-06-18T02:13:35.924Z,99414.65
2018-06-18T02:16:04.404Z,99416.58
2018-06-18T02:18:33.071Z,99419.14
2018-06-18T02:21:01.514Z,99412.38
2018-06-18T02:23:30.425Z,99397.61
2018-06-18T02:25:58.860Z,99424.31
2018-06-18T02:28:32.627Z,99420.10
2018-06-18T02:31:06.711Z,99420.01
2018-06-18T02:33:40.517Z,99417.50
2018-06-18T02:36:14.413Z,99422.47
2018-06-18T02:39:14.308Z,99435.41
2018-06-18T02:41:43.632Z,99463.30
2018-06-18T02:44:12.192Z,99446.19
2018-06-18T02:46:40.795Z,99440.95
2018-06-18T02:49:09.717Z,99428.04
2018-06-18T02:51:38.258Z,99439.17
2018-06-18T02:54:07.354Z,99444.02
2018-06-18T02:56:57.677Z,99446.58
2018-06-18T02:59:25.985Z,99451.68
2018-06-18T03:01:54.633Z,99450.77
2018-06-18T03:04:23.468Z,99458.58
2018-06-18T03:06:51.988Z,99449.77
2018-06-18T03:09:20.480Z,99463.30
2018-06-18T03:11:49.056Z,99460.63
2018-06-18T03:14:18.651Z,99450.80
2018-06-18T03:16:46.749Z,99457.06
2018-06-18T03:19:20.784Z,99457.43
2018-06-18T03:21:54.496Z,99458.06
2018-06-18T03:24:28.946Z,99460.34
2018-06-18T03:27:02.933Z,99468.26
2018-06-18T03:29:33.011Z,99463.16
2018-06-18T03:32:03.807Z,99472.22
2018-06-18T03:34:32.521Z,99469.16
2018-06-18T03:37:01.084Z,99467.34
2018-06-18T03:39:29.380Z,99472.61
2018-06-18T03:41:58.051Z,99458.06
2018-06-18T03:44:30.652Z,99473.36
2018-06-18T03:47:02.096Z,99472.21
2018-06-18T03:49:30.448Z,99477.34
2018-06-18T03:51:59.284Z,99477.61
2018-06-18T03:54:27.768Z,99474.53
2018-06-18T03:56:56.264Z,99475.28
2018-06-18T03:59:24.943Z,99470.05
2018-06-18T04:04:06.906Z,99468.77
2018-06-18T04:06:41.015Z,99485.37
2018-06-18T04:09:14.744Z,99492.80
2018-06-18T04:11:48.588Z,99493.42
2018-06-18T04:14:17.125Z,99503.27
2018-06-18T04:16:45.638Z,99497.64
2018-06-18T04:19:14.607Z,99467.36
2018-06-18T04:21:43.355Z,99473.13
2018-06-18T04:24:11.477Z,99496.11
2018-06-18T04:26:40.533Z,99497.49
2018-06-18T04:29:08.826Z,99494.55
2018-06-18T04:31:37.301Z,99477.45
2018-06-18T04:34:19.292Z,99455.73
2018-06-18T04:36:47.652Z,99475.30
2018-06-18T04:39:16.234Z,99502.47
2018-06-18T04:41:50.388Z,99488.52
2018-06-18T04:44:23.879Z,99486.73
2018-06-18T04:46:58.033Z,99489.53
2018-06-18T04:49:31.872Z,99495.16
2018-06-18T04:52:00.082Z,99494.14
2018-06-18T04:54:28.908Z,99490.83
2018-06-18T04:56:57.256Z,99489.03
2018-06-18T04:59:25.648Z,99498.09
2018-06-18T05:01:54.603Z,99499.34
2018-06-18T05:04:22.890Z,99506.98
2018-06-18T05:06:51.244Z,99496.57
2018-06-18T05:09:33.200Z,99495.64
2018-06-18T05:12:01.688Z,99479.81
2018-06-18T05:14:29.715Z,99493.97
2018-06-18T05:16:58.835Z,99500.78
2018-06-18T05:19:27.055Z,99495.83
2018-06-18T05:21:55.186Z,99496.36
2018-06-18T05:24:23.628Z,99508.84
2018-06-18T05:26:53.488Z,99497.66
2018-06-18T05:29:23.481Z,99479.79
2018-06-18T05:31:52.508Z,99500.88
2018-06-18T05:34:23.068Z,99490.30
2018-06-18T05:36:52.200Z,99501.62
2018-06-18T05:39:20.664Z,99501.00
2018-06-18T05:41:49.034Z,99502.12
2018-06-18T05:44:17.368Z,99506.11
2018-06-18T05:46:46.012Z,99485.53
2018-06-18T05:49:16.263Z,99506.18
2018-06-18T05:51:44.573Z,99483.40
2018-06-18T05:54:13.025Z,99503.09
2018-06-18T05:56:41.037Z,99502.75
2018-06-18T05:59:09.476Z,99505.91
2018-06-18T06:01:38.143Z,99501.66
2018-06-18T06:04:06.408Z,99500.56
2018-06-18T06:06:34.504Z,99513.53
2018-06-18T06:09:02.924Z,99516.45
2018-06-18T06:11:31.276Z,99517.69
2018-06-18T06:13:59.507Z,99521.35
2018-06-18T06:16:27.809Z,99514.53
2018-06-18T06:18:55.988Z,99519.70
2018-06-18T06:21:24.136Z,99515.09
2018-06-18T06:23:52.527Z,99518.84
2018-06-18T06:26:20.832Z,99517.78
2018-06-18T06:28:49.132Z,99512.47
2018-06-18T06:31:17.672Z,99502.11
2018-06-18T06:33:45.864Z,99519.68
2018-06-18T06:36:14.508Z,99524.30
2018-06-18T06:38:42.619Z,99528.72
2018-06-18T06:41:11.200Z,99530.77
2018-06-18T06:43:39.532Z,99528.67
2018-06-18T06:46:07.666Z,99538.47
2018-06-18T06:48:35.848Z,99549.69
2018-06-18T06:51:04.089Z,99550.21
2018-06-18T06:53:32.673Z,99557.05
2018-06-18T06:56:01.324Z,99550.80
2018-06-18T06:58:29.501Z,99549.20
2018-06-18T07:00:57.520Z,99551.63
2018-06-18T07:03:26.368Z,99562.28
2018-06-18T07:05:54.755Z,99564.16
2018-06-18T07:08:22.845Z,99557.82
2018-06-18T07:10:51.795Z,99553.44
2018-06-18T07:13:20.580Z,99554.69
2018-06-18T07:15:48.961Z,99537.20
2018-06-18T07:18:17.407Z,99547.41
2018-06-18T07:20:45.459Z,99541.77
2018-06-18T07:23:14.036Z,99548.27
2018-06-18T07:25:42.390Z,99549.03
2018-06-18T07:28:10.431Z,99554.92
2018-06-18T07:30:38.495Z,99562.48
2018-06-18T07:33:07.300Z,99556.72
2018-06-18T07:35:35.805Z,99567.34
2018-06-18T07:38:04.270Z,99553.91
2018-06-18T07:40:33.533Z,99553.11
2018-06-18T07:43:01.590Z,99558.52
2018-06-18T07:45:29.828Z,99528.14
2018-06-18T07:47:58.581Z,99548.19
2018-06-18T07:50:26.627Z,99556.27
2018-06-18T07:52:54.666Z,99567.02
2018-06-18T07:55:23.393Z,99560.17
2018-06-18T07:57:51.440Z,99576.81
2018-06-18T08:00:19.784Z,99573.06
2018-06-18T08:02:48.312Z,99575.09
2018-06-18T08:05:16.411Z,99560.59
2018-06-18T08:07:44.882Z,99567.16
2018-06-18T08:10:13.196Z,99551.27
2018-06-18T08:12:41.281Z,99562.06
2018-06-18T08:15:09.336Z,99566.73
2018-06-18T08:17:37.814Z,99565.67
2018-06-18T08:20:05.983Z,99553.20
2018-06-18T08:22:34.317Z,99570.37
2018-06-18T08:25:03.089Z,99574.16
2018-06-18T08:27:31.681Z,99570.85
2018-06-18T08:30:00.204Z,99575.37
2018-06-18T08:32:28.672Z,99572.40
2018-06-18T08:34:57.249Z,99580.49
2018-06-18T08:37:25.567Z,99583.82
2018-06-18T08:39:54.156Z,99574.89
2018-06-18T08:42:22.390Z,99577.98
2018-06-18T08:44:50.589Z,99576.67
2018-06-18T08:47:18.694Z,99527.89
2018-06-18T08:49:53.518Z,99574.89
2018-06-18T08:52:27.118Z,99527.50
2018-06-18T08:55:00.967Z,99549.68
2018-06-18T08:57:34.791Z,99562.45
2018-06-18T09:00:09.411Z,99578.30
2018-06-18T09:02:42.024Z,99577.27
2018-06-18T09:05:11.528Z,99580.34
2018-06-18T09:07:45.482Z,99563.82
2018-06-18T09:10:13.650Z,99577.30
2018-06-18T09:12:42.104Z,99571.08
2018-06-18T09:15:14.602Z,99573.50
2018-06-18T09:17:42.660Z,99581.78
2018-06-18T09:20:10.747Z,99530.55
2018-06-18T09:22:39.295Z,99566.30
2018-06-18T09:25:07.771Z,99566.95
2018-06-18T09:27:36.940Z,99569.19
2018-06-18T09:30:09.251Z,99561.78
2018-06-18T09:32:37.531Z,99557.53
2018-06-18T09:35:05.796Z,99558.98
2018-06-18T09:37:34.473Z,99560.74
2018-06-18T09:40:02.858Z,99537.30
2018-06-18T09:42:31.273Z,99561.73
2018-06-18T09:44:59.601Z,99530.38
2018-06-18T09:47:27.688Z,99568.14
2018-06-18T09:50:01.648Z,99564.95
2018-06-18T09:52:36.132Z,99576.91
2018-06-18T09:55:11.160Z,99552.17
2018-06-18T09:57:45.084Z,99563.14
2018-06-18T10:00:27.310Z,99560.61
2018-06-18T10:02:56.247Z,99544.96
2018-06-18T10:05:25.208Z,99564.94
2018-06-18T10:07:53.253Z,99567.56
2018-06-18T10:10:21.482Z,99558.77
2018-06-18T10:12:49.789Z,99554.35
2018-06-18T10:15:17.922Z,99549.00
2018-06-18T10:17:46.342Z,99549.36
2018-06-18T10:20:14.455Z,99551.83
2018-06-18T10:22:42.480Z,99549.97
2018-06-18T10:25:10.528Z,99547.12
2018-06-18T10:27:38.673Z,99521.94
2018-06-18T10:30:06.769Z,99537.94
2018-06-18T10:32:40.514Z,99529.02
2018-06-18T10:35:14.049Z,99528.13
2018-06-18T10:37:47.929Z,99543.63
2018-06-18T10:40:21.583Z,99549.20
2018-06-18T10:42:55.672Z,99539.11
2018-06-18T10:45:24.667Z,99546.14
2018-06-18T10:47:53.256Z,99539.04
2018-06-18T10:50:21.681Z,99538.92
2018-06-18T11:36:30.234Z,99528.86
2018-06-18T11:38:58.318Z,99537.49
2018-06-18T11:41:27.015Z,99529.61
2018-06-18T11:43:55.181Z,99523.22
2018-06-18T11:46:23.311Z,99529.57
2018-06-18T11:48:51.719Z,99529.99
2018-06-18T11:51:19.967Z,99524.14
2018-06-18T11:53:48.088Z,99509.28
2018-06-18T11:56:16.196Z,99522.23
2018-06-18T11:58:50.080Z,99521.33
2018-06-18T12:01:24.101Z,99495.46
2018-06-18T12:03:57.506Z,99529.54
2018-06-18T12:06:31.508Z,99522.28
2018-06-18T12:09:04.962Z,99526.53
2018-06-18T12:11:34.037Z,99522.45
2018-06-18T12:14:03.187Z,99527.27
2018-06-18T12:16:36.281Z,99529.27
2018-06-18T12:19:27.550Z,99522.31
2018-06-18T12:25:17.286Z,99516.55
2018-06-18T12:27:46.285Z,99509.11
2018-06-18T12:30:14.838Z,99523.65
2018-06-18T12:32:43.341Z,99519.06
2018-06-18T12:35:12.273Z,99472.90
2018-06-18T12:37:40.679Z,99496.53
2018-06-18T12:40:11.092Z,99487.60
2018-06-18T12:42:40.144Z,99513.16
2018-06-18T12:45:14.841Z,99506.06
2018-06-18T12:47:48.858Z,99512.13
2018-06-18T12:50:23.081Z,99503.53
2018-06-18T12:52:56.597Z,99532.12
2018-06-18T12:55:30.010Z,99527.11
2018-06-18T12:57:59.074Z,99521.75
2018-06-18T13:00:27.157Z,99518.39
2018-06-18T13:02:59.845Z,99529.81
2018-06-18T13:05:29.431Z,99541.93
2018-06-18T13:07:57.466Z,99515.84
2018-06-18T13:10:25.829Z,99531.50
2018-06-18T13:12:54.214Z,99528.06
2018-06-18T13:15:22.424Z,99538.72
2018-06-18T13:17:51.099Z,99519.80
2018-06-18T13:20:19.384Z,99525.05
2018-06-18T13:22:47.595Z,99527.53
2018-06-18T13:25:15.746Z,99540.92
2018-06-18T13:27:49.859Z,99520.16
2018-06-18T13:30:18.084Z,99526.85
2018-06-18T13:32:53.221Z,99501.28
2018-06-18T13:35:23.175Z,99520.30
2018-06-18T13:37:56.903Z,99521.30
2018-06-18T13:40:31.343Z,99522.43
2018-06-18T13:43:04.781Z,99503.03
2018-06-18T13:45:44.036Z,99512.13
2018-06-18T13:48:17.716Z,99526.33
2018-06-18T13:50:45.922Z,99529.51
2018-06-18T13:53:14.290Z,99525.12
2018-06-18T13:55:42.546Z,99500.35
2018-06-18T13:58:11.169Z,99524.38
2018-06-18T14:00:39.347Z,99527.19
2018-06-18T14:03:07.967Z,99523.59
2018-06-18T14:05:36.181Z,99525.51
2018-06-18T14:08:05.024Z,99508.84
2018-06-18T14:10:33.724Z,99505.73
2018-06-18T14:13:01.831Z,99516.14
2018-06-18T14:15:30.190Z,99514.88
2018-06-18T14:17:58.502Z,99520.41
2018-06-18T14:20:27.237Z,99523.45
2018-06-18T14:22:55.869Z,99466.52
2018-06-18T14:25:23.978Z,99521.97
2018-06-18T14:27:53.036Z,99525.42
2018-06-18T14:30:26.536Z,99522.38
2018-06-18T14:33:00.480Z,99511.40
2018-06-18T14:35:38.110Z,99523.63
2018-06-18T14:38:12.774Z,99517.27
2018-06-18T14:40:41.241Z,99520.95
2018-06-18T14:43:10.422Z,99524.47
2018-06-18T14:45:38.986Z,99521.66
2018-06-18T14:48:07.782Z,99508.30
2018-06-18T14:50:36.846Z,99512.98
2018-06-18T14:53:06.503Z,99519.59
2018-06-18T14:55:34.889Z,99517.47
2018-06-18T14:58:04.050Z,99506.97
2018-06-18T15:00:33.635Z,99512.13
2018-06-18T15:03:04.651Z,99553.08
2018-06-18T15:05:39.666Z,99516.23
2018-06-18T15:08:11.134Z,99517.83
2018-06-18T15:10:46.375Z,99487.86
2018-06-18T15:13:16.979Z,99501.91
2018-06-18T15:15:53.870Z,99474.02
2018-06-18T15:18:22.642Z,99494.79
2018-06-18T15:20:53.835Z,99492.55
2018-06-18T15:23:23.402Z,99512.09
2018-06-18T15:25:52.762Z,99495.59
2018-06-18T15:28:23.473Z,99497.39
2018-06-18T15:30:52.456Z,99499.14
2018-06-18T15:33:21.213Z,99497.51
2018-06-18T15:35:50.146Z,99498.52
2018-06-18T15:38:24.512Z,99490.30
2018-06-18T15:40:54.628Z,99496.38
2018-06-18T15:43:25.533Z,99487.25
2018-06-18T15:45:55.636Z,99486.00
2018-06-18T15:48:26.689Z,99485.34
2018-06-18T15:50:55.336Z,99494.50
2018-06-18T15:53:25.201Z,99451.87
2018-06-18T15:55:54.809Z,99478.97
2018-06-18T15:58:25.093Z,99481.08
2018-06-18T16:00:54.965Z,99491.55
2018-06-18T16:03:23.977Z,99479.45
2018-06-18T16:05:54.774Z,99487.30
2018-06-18T16:08:23.645Z,99478.77
2018-06-18T16:10:52.684Z,99477.09
2018-06-18T16:13:22.973Z,99473.86
2018-06-18T16:15:56.133Z,99472.59
2018-06-18T16:18:26.410Z,99484.86
2018-06-18T16:20:54.812Z,99459.87
2018-06-18T16:23:24.571Z,99467.38
2018-06-18T16:25:54.120Z,99471.19
2018-06-18T16:28:23.226Z,99478.50
2018-06-18T16:30:51.756Z,99480.32
2018-06-18T16:33:20.966Z,99478.27
2018-06-18T16:35:49.181Z,99481.00
2018-06-18T16:38:17.288Z,99479.38
2018-06-18T16:40:46.730Z,99488.52
2018-06-18T16:43:16.979Z,99479.37
2018-06-18T16:45:46.227Z,99485.47
2018-06-18T16:48:15.670Z,99474.72
2018-06-18T16:50:44.722Z,99433.31
2018-06-18T16:53:14.891Z,99451.27
2018-06-18T16:55:45.015Z,99469.42
2018-06-18T16:58:14.815Z,99518.09
2018-06-18T17:00:43.233Z,99464.48
2018-06-18T17:03:12.232Z,99458.61
2018-06-18T17:05:40.697Z,99456.80
2018-06-18T17:08:08.803Z,99459.08
2018-06-18T17:10:37.256Z,99458.41
2018-06-18T17:13:05.789Z,99455.90
2018-06-18T17:15:34.548Z,99451.76
2018-06-18T17:18:03.420Z,99463.93
2018-06-18T17:20:31.682Z,99462.91
2018-06-18T17:23:00.191Z,99447.41
2018-06-18T17:25:30.884Z,99455.11
2018-06-18T17:27:58.995Z,99421.72
2018-06-18T17:30:28.064Z,99453.73
2018-06-18T17:32:56.871Z,99422.94
2018-06-18T17:35:25.060Z,99446.53
2018-06-18T17:37:54.421Z,99424.34
2018-06-18T17:40:22.827Z,99449.48
2018-06-18T17:42:50.992Z,99408.81
2018-06-18T17:45:19.533Z,99462.07
2018-06-18T17:47:47.784Z,99454.27
2018-06-18T17:50:15.989Z,99391.14
2018-06-18T17:52:44.335Z,99437.22
2018-06-18T17:55:12.376Z,99456.73
2018-06-18T17:57:40.541Z,99445.27
2018-06-18T18:00:09.030Z,99433.09
2018-06-18T18:02:37.171Z,99456.09
2018-06-18T18:05:05.481Z,99429.98
2018-06-18T18:07:34.036Z,99456.95
2018-06-18T18:10:02.408Z,99453.05
2018-06-18T18:12:30.517Z,99457.30
2018-06-18T18:14:59.256Z,99455.52
2018-06-18T18:17:27.794Z,99462.16
2018-06-18T18:19:56.159Z,99461.59
2018-06-18T18:22:24.882Z,99464.06
2018-06-18T18:24:54.186Z,99452.31
2018-06-18T18:27:23.783Z,99458.59
2018-06-18T18:29:52.173Z,99461.48
2018-06-18T18:32:20.601Z,99463.02
2018-06-18T18:34:48.893Z,99454.22
2018-06-18T18:37:17.451Z,99449.19
2018-06-18T18:39:45.525Z,99464.66
2018-06-18T18:42:14.634Z,99468.44
2018-06-18T18:44:43.093Z,99397.19
2018-06-18T18:47:11.483Z,99468.27
2018-06-18T18:49:39.918Z,99459.44
2018-06-18T18:52:08.250Z,99444.59
2018-06-18T18:55:58.107Z,99462.97
2018-06-18T18:59:42.605Z,99468.95
2018-06-18T19:02:10.846Z,99462.78
2018-06-18T19:04:57.624Z,99458.35
2018-06-18T19:07:35.216Z,99467.14
2018-06-18T19:10:36.354Z,99463.54
2018-06-18T19:13:07.262Z,99473.48
2018-06-18T19:15:35.923Z,99424.63
2018-06-18T19:18:05.730Z,99480.97
2018-06-18T19:20:39.669Z,99465.89
2018-06-18T19:23:08.239Z,99470.58
2018-06-18T19:25:36.539Z,99491.89
2018-06-18T19:28:08.124Z,99490.83
2018-06-18T19:30:53.600Z,99493.06
2018-06-18T19:33:26.826Z,99491.17
2018-06-18T19:35:56.373Z,99501.10
2018-06-18T19:38:25.381Z,99500.75
2018-06-18T19:40:54.407Z,99507.71
2018-06-18T19:43:23.354Z,99507.50
2018-06-18T19:45:54.606Z,99516.38
2018-06-18T19:48:27.295Z,99478.22
2018-06-18T19:50:55.872Z,99506.05
2018-06-18T19:53:24.525Z,99515.83
2018-06-18T19:55:52.849Z,99503.61
2018-06-18T19:58:21.289Z,99517.88
2018-06-18T20:00:52.180Z,99517.86
2018-06-18T20:03:21.976Z,99524.97
2018-06-18T20:05:54.269Z,99527.56
2018-06-18T20:08:38.461Z,99420.13
2018-06-18T20:11:10.144Z,99500.47
2018-06-18T20:13:48.354Z,99526.47
2018-06-18T20:16:17.879Z,99508.23
2018-06-18T20:18:47.230Z,99533.27
2018-06-18T20:21:17.283Z,99522.66
2018-06-18T20:23:45.493Z,99474.69
2018-06-18T20:26:16.673Z,99536.66
2018-06-18T20:28:44.781Z,99544.28
2018-06-18T20:31:13.443Z,99546.51
2018-06-18T20:33:45.354Z,99540.69
2018-06-18T20:36:15.710Z,99552.24
2018-06-18T20:38:44.247Z,99531.87
2018-06-18T20:41:12.327Z,99536.19
2018-06-18T20:43:54.203Z,99547.35
2018-06-18T20:46:22.942Z,99533.29
2018-06-18T20:48:51.497Z,99551.98
2018-06-18T20:51:19.684Z,99556.84
2018-06-18T20:53:48.389Z,99553.41
2018-06-18T20:56:16.623Z,99533.57
2018-06-18T20:58:45.522Z,99477.33
2018-06-18T21:01:15.015Z,99521.06
2018-06-18T21:03:43.383Z,99551.30
2018-06-18T21:06:12.043Z,99536.15
2018-06-18T21:08:45.069Z,99548.67
2018-06-18T21:11:13.157Z,99542.66
2018-06-18T21:13:41.185Z,99547.33
2018-06-18T21:16:10.735Z,99539.09
2018-06-18T21:18:40.677Z,99516.53
2018-06-18T21:21:08.829Z,99548.87
2018-06-18T21:23:37.164Z,99548.20
2018-06-18T21:26:05.429Z,99538.92
2018-06-18T21:28:33.497Z,99553.99
2018-06-18T21:31:02.770Z,99525.06
2018-06-18T21:33:30.910Z,99561.19
2018-06-18T21:35:59.096Z,99557.00
2018-06-18T21:38:28.951Z,99558.08
2018-06-18T21:40:58.116Z,99536.05
2018-06-18T21:43:26.821Z,99561.42
2018-06-18T21:45:55.135Z,99568.89
2018-06-18T21:48:24.243Z,99555.94
2018-06-18T21:50:53.448Z,99553.27
2018-06-18T21:53:22.115Z,99563.83
2018-06-18T21:55:50.348Z,99553.95
2018-06-18T21:58:18.801Z,99556.58
2018-06-18T22:00:49.161Z,99563.66
2018-06-18T22:03:18.014Z,99559.47
2018-06-18T22:05:46.368Z,99561.44
2018-06-18T22:08:16.283Z,99556.63
2018-06-18T22:10:44.989Z,99458.01
2018-06-18T22:13:13.118Z,99543.78
2018-06-18T22:15:41.316Z,99551.42
2018-06-18T22:18:09.662Z,99546.80
2018-06-18T22:20:38.195Z,99505.60
2018-06-18T22:23:07.184Z,99531.45
2018-06-18T22:25:35.280Z,99536.52
2018-06-18T22:28:05.294Z,99532.29
2018-06-18T22:30:33.690Z,99550.55
2018-06-18T22:33:03.990Z,99522.06
2018-06-18T22:35:32.746Z,99554.73
2018-06-18T22:38:06.340Z,99564.88
2018-06-18T22:40:34.555Z,99551.47
2018-06-18T22:43:02.712Z,99541.25
2018-06-18T22:45:31.484Z,99533.99
2018-06-18T22:47:59.739Z,99548.41
2018-06-18T22:50:28.435Z,99542.84
2018-06-18T22:52:56.997Z,99538.97
2018-06-18T22:55:25.451Z,99543.25
2018-06-18T22:57:53.543Z,99512.36
2018-06-18T23:00:21.963Z,99543.98
2018-06-18T23:02:50.250Z,99550.31
2018-06-18T23:05:18.335Z,99548.20
2018-06-18T23:07:46.717Z,99519.07
2018-06-18T23:10:14.871Z,99541.66
2018-06-18T23:12:45.241Z,99547.25
2018-06-18T23:15:14.514Z,99483.29
2018-06-18T23:17:42.619Z,99539.64
2018-06-18T23:20:10.862Z,99544.44
2018-06-18T23:22:39.623Z,99539.16
2018-06-18T23:25:08.149Z,99536.80
2018-06-18T23:27:36.618Z,99540.44
2018-06-18T23:30:05.772Z,99532.15
2018-06-18T23:32:34.079Z,99509.16
2018-06-18T23:35:02.937Z,99503.14
2018-06-18T23:37:31.072Z,99545.44
2018-06-18T23:39:59.478Z,99526.08
2018-06-18T23:42:29.142Z,99274.81
2018-06-18T23:44:58.204Z,99466.06
2018-06-18T23:47:26.737Z,99545.95
2018-06-18T23:49:54.987Z,99544.30
2018-06-18T23:52:23.479Z,99540.16
2018-06-18T23:54:51.909Z,99546.13
2018-06-18T23:57:20.235Z,99522.83
2018-06-18T23:59:49.228Z,99548.39
